createdAt,value
2019-05-03T00:02:28.880Z,99324.34
2019-05-03T00:05:08.495Z,99327.84
2019-05-03T00:07:37.551Z,99329.34
2019-05-03T00:10:07.915Z,99326.66
2019-05-03T00:12:37.137Z,99332.79
2019-05-03T00:15:16.596Z,99333.67
2019-05-03T00:17:45.649Z,99334.98
2019-05-03T00:20:14.762Z,99335.41
2019-05-03T00:22:43.901Z,99337.61
2019-05-03T00:25:13.618Z,99340.27
2019-05-03T00:27:42.885Z,99339.39
2019-05-03T00:30:12.119Z,99345.14
2019-05-03T00:32:42.743Z,99342.98
2019-05-03T00:35:15.766Z,99343.33
2019-05-03T00:37:46.899Z,99341.17
2019-05-03T00:40:26.660Z,99339.91
2019-05-03T00:42:55.754Z,99339.09
2019-05-03T00:45:24.824Z,99347.39
2019-05-03T00:47:53.945Z,99340.82
2019-05-03T00:50:23.391Z,99340.88
2019-05-03T00:52:52.717Z,99344.82
2019-05-03T00:55:22.076Z,99346.98
2019-05-03T00:57:52.146Z,99344.03
2019-05-03T01:00:21.799Z,99342.25
2019-05-03T01:02:51.684Z,99339.59
2019-05-03T01:05:22.695Z,99341.41
2019-05-03T01:07:52.542Z,99339.69
2019-05-03T01:10:22.625Z,99340.59
2019-05-03T01:12:52.466Z,99344.59
2019-05-03T01:15:31.949Z,99343.34
2019-05-03T01:18:03.664Z,99345.96
2019-05-03T01:20:33.156Z,99343.86
2019-05-03T01:23:02.223Z,99346.59
2019-05-03T01:25:35.221Z,99349.66
2019-05-03T01:28:02.046Z,99353.28
2019-05-03T01:30:32.055Z,99344.11
2019-05-03T01:33:02.834Z,99348.52
2019-05-03T01:35:32.382Z,99345.52
2019-05-03T01:38:02.559Z,99342.88
2019-05-03T01:40:32.568Z,99343.79
2019-05-03T01:43:02.241Z,99345.95
2019-05-03T01:45:31.902Z,99346.44
2019-05-03T01:48:29.659Z,99343.00
2019-05-03T01:51:26.769Z,99346.06
2019-05-03T01:53:55.810Z,99341.33
2019-05-03T01:56:24.919Z,99343.13
2019-05-03T01:58:53.958Z,99344.45
2019-05-03T02:01:46.455Z,99347.09
2019-05-03T02:04:46.228Z,99350.19
2019-05-03T02:07:15.282Z,99347.20
2019-05-03T02:09:44.430Z,99348.08
2019-05-03T02:12:13.500Z,99350.27
2019-05-03T02:14:42.575Z,99349.39
2019-05-03T02:17:12.428Z,99346.30
2019-05-03T02:19:42.128Z,99349.29
2019-05-03T02:22:12.104Z,99345.77
2019-05-03T02:24:42.244Z,99351.40
2019-05-03T02:27:12.762Z,99349.70
2019-05-03T02:29:41.957Z,99351.04
2019-05-03T02:32:13.268Z,99358.89
2019-05-03T02:34:43.958Z,99357.17
2019-05-03T02:37:13.852Z,99363.73
2019-05-03T02:39:43.162Z,99366.36
2019-05-03T02:42:12.324Z,99370.30
2019-05-03T02:44:41.423Z,99371.61
2019-05-03T02:47:37.228Z,99375.19
2019-05-03T02:50:16.462Z,99381.78
2019-05-03T02:52:45.763Z,99378.47
2019-05-03T02:55:16.229Z,99381.20
2019-05-03T02:57:46.686Z,99378.13
2019-05-03T03:00:16.837Z,99382.13
2019-05-03T03:02:45.972Z,99379.09
2019-05-03T03:05:16.648Z,99381.77
2019-05-03T03:07:46.289Z,99379.19
2019-05-03T03:10:16.233Z,99387.14
2019-05-03T03:12:46.498Z,99381.99
2019-05-03T03:15:16.388Z,99387.27
2019-05-03T03:17:45.837Z,99383.41
2019-05-03T03:20:16.110Z,99386.44
2019-05-03T03:22:45.844Z,99384.28
2019-05-03T03:25:25.573Z,99390.77
2019-05-03T03:27:55.673Z,99386.77
2019-05-03T03:30:40.121Z,99387.34
2019-05-03T03:33:17.163Z,99389.14
2019-05-03T03:35:48.875Z,99395.23
2019-05-03T03:38:16.360Z,99386.56
2019-05-03T03:40:45.546Z,99395.31
2019-05-03T03:43:15.700Z,99394.88
2019-05-03T03:45:45.505Z,99388.31
2019-05-03T03:48:15.842Z,99397.06
2019-05-03T03:50:45.746Z,99401.90
2019-05-03T03:53:15.472Z,99405.38
2019-05-03T03:55:47.258Z,99401.44
2019-05-03T03:58:22.548Z,99399.66
2019-05-03T04:00:47.246Z,99405.81
2019-05-03T04:03:16.400Z,99401.46
2019-05-03T04:05:46.788Z,99402.75
2019-05-03T04:08:16.453Z,99403.58
2019-05-03T04:10:46.405Z,99408.00
2019-05-03T04:13:16.259Z,99411.50
2019-05-03T04:16:01.461Z,99410.67
2019-05-03T04:18:40.269Z,99412.39
2019-05-03T04:21:09.316Z,99413.80
2019-05-03T04:23:38.627Z,99410.77
2019-05-03T04:26:07.659Z,99423.47
2019-05-03T04:28:37.270Z,99426.12
2019-05-03T04:31:06.451Z,99430.05
2019-05-03T04:33:35.968Z,99429.60
2019-05-03T04:36:05.642Z,99436.98
2019-05-03T04:38:35.709Z,99436.16
2019-05-03T04:41:05.902Z,99447.09
2019-05-03T04:43:35.741Z,99455.36
2019-05-03T04:46:09.649Z,99462.42
2019-05-03T04:48:38.802Z,99467.78
2019-05-03T04:51:07.995Z,99470.13
2019-05-03T04:53:38.729Z,99475.87
2019-05-03T04:56:07.751Z,99469.36
2019-05-03T04:58:36.810Z,99468.53
2019-05-03T05:01:06.886Z,99482.22
2019-05-03T05:03:36.480Z,99488.44
2019-05-03T05:06:06.533Z,99495.49
2019-05-03T05:08:36.170Z,99499.86
2019-05-03T05:11:09.694Z,99502.95
2019-05-03T05:13:36.277Z,99502.47
2019-05-03T05:16:06.086Z,99510.73
2019-05-03T05:18:40.311Z,99512.06
2019-05-03T05:21:22.775Z,99514.81
2019-05-03T05:24:00.337Z,99514.36
2019-05-03T05:26:37.153Z,99515.26
2019-05-03T05:29:09.400Z,99509.64
2019-05-03T05:31:38.543Z,99517.03
2019-05-03T05:34:08.887Z,99522.20
2019-05-03T05:36:38.088Z,99516.89
2019-05-03T05:39:07.292Z,99525.98
2019-05-03T05:41:36.360Z,99524.66
2019-05-03T05:44:05.573Z,99521.87
2019-05-03T05:46:41.468Z,99526.98
2019-05-03T05:49:14.688Z,99532.03
2019-05-03T05:51:44.509Z,99533.94
2019-05-03T05:54:14.407Z,99541.48
2019-05-03T05:57:08.366Z,99540.70
2019-05-03T05:59:49.069Z,99540.54
2019-05-03T06:02:18.856Z,99543.48
2019-05-03T06:04:47.922Z,99544.38
2019-05-03T06:07:48.247Z,99549.64
2019-05-03T06:10:24.893Z,99550.52
2019-05-03T06:13:06.550Z,99552.22
2019-05-03T06:15:51.555Z,99552.14
2019-05-03T06:18:25.661Z,99552.44
2019-05-03T06:21:11.261Z,99552.28
2019-05-03T06:23:45.343Z,99554.33
2019-05-03T06:26:32.013Z,99559.87
2019-05-03T06:29:01.141Z,99562.78
2019-05-03T06:31:37.273Z,99562.70
2019-05-03T06:34:06.409Z,99562.91
2019-05-03T06:36:36.189Z,99567.69
2019-05-03T06:39:08.390Z,99565.93
2019-05-03T06:41:37.677Z,99566.73
2019-05-03T06:44:06.874Z,99560.16
2019-05-03T06:46:49.342Z,99554.47
2019-05-03T06:49:18.429Z,99566.08
2019-05-03T06:51:49.688Z,99569.19
2019-05-03T06:54:20.574Z,99572.97
2019-05-03T06:56:49.887Z,99575.39
2019-05-03T06:59:35.748Z,99569.44
2019-05-03T07:02:18.233Z,99568.89
2019-05-03T07:04:49.382Z,99566.52
2019-05-03T07:07:35.462Z,99564.91
2019-05-03T07:10:30.689Z,99564.55
2019-05-03T07:13:00.710Z,99563.95
2019-05-03T07:15:36.828Z,99561.22
2019-05-03T07:18:06.097Z,99556.30
2019-05-03T07:23:24.480Z,99562.30
2019-05-03T07:25:55.190Z,99564.13
2019-05-03T07:28:24.795Z,99568.64
2019-05-03T07:30:54.545Z,99559.52
2019-05-03T07:33:32.033Z,99566.73
2019-05-03T07:36:01.165Z,99561.47
2019-05-03T07:38:30.325Z,99562.75
2019-05-03T07:40:59.454Z,99559.59
2019-05-03T07:43:28.547Z,99552.09
2019-05-03T07:45:57.695Z,99557.45
2019-05-03T07:48:29.953Z,99556.10
2019-05-03T07:50:59.293Z,99555.51
2019-05-03T07:53:28.565Z,99556.47
2019-05-03T07:56:11.037Z,99553.89
2019-05-03T07:59:02.891Z,99552.55
2019-05-03T08:01:29.959Z,99550.28
2019-05-03T08:03:59.138Z,99552.02
2019-05-03T08:06:28.242Z,99553.91
2019-05-03T08:12:37.321Z,99552.41
2019-05-03T08:15:06.597Z,99550.80
2019-05-03T08:17:35.716Z,99546.36
2019-05-03T08:20:05.246Z,99551.58
2019-05-03T08:22:34.591Z,99557.14
2019-05-03T08:25:05.429Z,99557.89
2019-05-03T08:27:35.428Z,99561.41
2019-05-03T08:30:06.932Z,99565.19
2019-05-03T08:32:58.836Z,99568.14
2019-05-03T08:35:36.451Z,99569.05
2019-05-03T08:38:05.487Z,99564.31
2019-05-03T08:40:39.894Z,99567.66
2019-05-03T08:43:09.026Z,99571.49
2019-05-03T08:45:38.168Z,99559.16
2019-05-03T08:48:07.227Z,99569.67
2019-05-03T08:50:39.059Z,99576.68
2019-05-03T08:53:08.080Z,99570.62
2019-05-03T08:55:37.288Z,99556.55
2019-05-03T08:58:06.326Z,99556.56
2019-05-03T09:00:37.864Z,99557.50
2019-05-03T09:03:06.982Z,99552.75
2019-05-03T09:05:36.208Z,99547.07
2019-05-03T09:08:05.745Z,99539.22
2019-05-03T09:10:47.430Z,99553.70
2019-05-03T09:13:21.019Z,99535.45
2019-05-03T09:15:50.770Z,99537.50
2019-05-03T09:18:19.861Z,99543.50
2019-05-03T09:20:48.899Z,99544.55
2019-05-03T09:23:23.235Z,99544.20
2019-05-03T09:25:51.001Z,99542.89
2019-05-03T09:28:20.078Z,99540.40
2019-05-03T09:30:49.165Z,99540.40
2019-05-03T09:33:18.245Z,99546.73
2019-05-03T09:35:47.310Z,99542.58
2019-05-03T09:38:16.469Z,99538.89
2019-05-03T09:40:45.631Z,99543.65
2019-05-03T09:43:15.192Z,99543.17
2019-05-03T09:45:45.750Z,99545.34
2019-05-03T09:48:15.217Z,99537.97
2019-05-03T09:50:45.228Z,99542.13
2019-05-03T09:53:15.910Z,99539.28
2019-05-03T09:55:45.085Z,99533.91
2019-05-03T09:58:15.368Z,99536.09
2019-05-03T10:00:45.197Z,99540.89
2019-05-03T10:03:14.233Z,99535.65
2019-05-03T10:05:45.680Z,99536.29
2019-05-03T10:08:15.796Z,99527.09
2019-05-03T10:11:02.568Z,99520.52
2019-05-03T10:13:35.207Z,99522.61
2019-05-03T10:16:05.832Z,99519.38
2019-05-03T10:18:34.960Z,99528.41
2019-05-03T10:21:05.366Z,99527.79
2019-05-03T10:23:42.373Z,99536.42
2019-05-03T10:26:11.704Z,99528.48
2019-05-03T10:28:40.799Z,99530.57
2019-05-03T10:31:09.913Z,99530.88
2019-05-03T10:34:05.765Z,99530.09
2019-05-03T10:36:35.621Z,99534.44
2019-05-03T10:39:05.737Z,99533.38
2019-05-03T10:41:34.932Z,99535.42
2019-05-03T10:44:06.017Z,99539.34
2019-05-03T10:46:35.813Z,99536.86
2019-05-03T10:49:05.745Z,99535.20
2019-05-03T10:51:39.818Z,99528.09
2019-05-03T10:54:08.901Z,99533.97
2019-05-03T10:56:46.888Z,99536.27
2019-05-03T10:59:16.639Z,99535.53
2019-05-03T11:27:04.305Z,99515.98
2019-05-03T11:29:35.394Z,99516.96
2019-05-03T11:32:16.802Z,99520.50
2019-05-03T11:34:57.838Z,99517.61
2019-05-03T11:37:52.889Z,99513.01
2019-05-03T11:40:21.984Z,99509.22
2019-05-03T11:42:55.281Z,99500.23
2019-05-03T11:45:24.688Z,99499.56
2019-05-03T11:47:55.049Z,99412.91
2019-05-03T11:50:25.358Z,99514.13
2019-05-03T11:52:56.019Z,99510.35
2019-05-03T11:55:27.476Z,99511.02
2019-05-03T11:57:58.073Z,99505.94
2019-05-03T12:00:34.339Z,99504.31
2019-05-03T12:03:15.609Z,99497.72
2019-05-03T12:05:48.274Z,99490.56
2019-05-03T12:08:17.542Z,99489.83
2019-05-03T12:14:36.804Z,99495.14
2019-05-03T12:17:18.963Z,99494.95
2019-05-03T12:19:41.748Z,99496.80
2019-05-03T12:22:12.317Z,99496.68
2019-05-03T12:24:42.100Z,99493.17
2019-05-03T12:27:11.834Z,99489.91
2019-05-03T12:29:40.900Z,99486.48
2019-05-03T12:32:09.954Z,99477.77
2019-05-03T12:34:39.049Z,99479.28
2019-05-03T12:37:08.088Z,99473.36
2019-05-03T12:39:37.098Z,99475.03
2019-05-03T12:42:06.213Z,99476.29
2019-05-03T12:44:35.555Z,99478.11
2019-05-03T12:47:06.049Z,99477.92
2019-05-03T12:49:35.998Z,99471.65
2019-05-03T12:52:05.458Z,99465.91
2019-05-03T12:54:35.676Z,99469.90
2019-05-03T12:57:05.219Z,99468.95
2019-05-03T13:00:11.206Z,99469.64
2019-05-03T13:02:46.938Z,99472.56
2019-05-03T13:05:15.996Z,99472.39
2019-05-03T13:07:49.931Z,99467.84
2019-05-03T13:10:22.454Z,99470.33
2019-05-03T13:12:53.157Z,99470.27
2019-05-03T13:15:20.836Z,99466.13
2019-05-03T13:17:49.914Z,99466.69
2019-05-03T13:20:19.041Z,99463.98
2019-05-03T13:22:48.208Z,99461.65
2019-05-03T13:25:18.837Z,99454.88
2019-05-03T13:27:47.934Z,99456.20
2019-05-03T13:30:17.193Z,99453.90
2019-05-03T13:32:46.259Z,99458.55
2019-05-03T13:35:15.316Z,99451.79
2019-05-03T13:37:45.312Z,99451.76
2019-05-03T13:40:14.839Z,99445.06
2019-05-03T13:42:56.316Z,99440.03
2019-05-03T13:45:14.746Z,99438.45
2019-05-03T13:47:44.770Z,99440.54
2019-05-03T13:50:15.231Z,99441.38
2019-05-03T13:52:45.311Z,99441.26
2019-05-03T13:55:14.656Z,99432.05
2019-05-03T13:57:45.843Z,99427.95
2019-05-03T14:00:15.268Z,99432.70
2019-05-03T14:02:44.950Z,99436.45
2019-05-03T14:05:15.488Z,99430.39
2019-05-03T14:07:44.822Z,99419.01
2019-05-03T14:10:13.777Z,99420.73
2019-05-03T14:12:43.034Z,99420.98
2019-05-03T14:15:12.131Z,99416.13
2019-05-03T14:17:41.203Z,99416.51
2019-05-03T14:20:47.314Z,99411.94
2019-05-03T14:23:16.417Z,99405.95
2019-05-03T14:25:45.475Z,99406.45
2019-05-03T14:28:14.713Z,99425.22
2019-05-03T14:30:45.426Z,99405.88
2019-05-03T14:33:14.705Z,99402.60
2019-05-03T14:35:45.214Z,99403.62
2019-05-03T14:38:15.102Z,99396.45
2019-05-03T14:40:44.917Z,99403.73
2019-05-03T14:43:15.468Z,99405.16
2019-05-03T14:45:44.728Z,99405.41
2019-05-03T14:48:15.222Z,99398.59
2019-05-03T14:50:45.584Z,99394.64
2019-05-03T14:53:14.933Z,99392.09
2019-05-03T14:55:55.223Z,99397.70
2019-05-03T14:58:49.222Z,99399.58
2019-05-03T15:01:25.844Z,99393.36
2019-05-03T15:03:55.071Z,99392.38
2019-05-03T15:06:24.951Z,99392.55
2019-05-03T15:08:54.714Z,99397.04
2019-05-03T15:11:23.961Z,99397.78
2019-05-03T15:13:54.954Z,99393.92
2019-05-03T15:16:25.017Z,99397.88
2019-05-03T15:18:54.834Z,99398.42
2019-05-03T15:21:25.200Z,99400.88
2019-05-03T15:23:54.812Z,99403.35
2019-05-03T15:26:24.830Z,99396.38
2019-05-03T15:28:55.451Z,99404.14
2019-05-03T15:31:24.682Z,99398.28
2019-05-03T15:33:55.511Z,99390.72
2019-05-03T15:36:24.823Z,99395.05
2019-05-03T15:38:55.213Z,99391.95
2019-05-03T15:41:25.199Z,99389.66
2019-05-03T15:44:00.109Z,99390.59
2019-05-03T15:46:51.270Z,99390.50
2019-05-03T15:49:20.431Z,99390.64
2019-05-03T15:51:49.562Z,99385.79
2019-05-03T15:54:18.612Z,99385.73
2019-05-03T15:56:47.645Z,99385.00
2019-05-03T15:59:16.714Z,99387.54
2019-05-03T16:01:45.785Z,99378.98
2019-05-03T16:04:14.872Z,99380.12
2019-05-03T16:06:44.798Z,99385.95
2019-05-03T16:09:15.246Z,99383.85
2019-05-03T16:11:45.089Z,99383.77
2019-05-03T16:14:15.310Z,99384.16
2019-05-03T16:16:45.109Z,99378.13
2019-05-03T16:19:14.691Z,99382.78
2019-05-03T16:21:45.286Z,99380.08
2019-05-03T16:24:15.436Z,99381.40
2019-05-03T16:27:02.146Z,99375.97
2019-05-03T16:29:31.210Z,99290.45
2019-05-03T16:32:00.273Z,99377.88
2019-05-03T16:34:29.442Z,99385.61
2019-05-03T16:36:58.469Z,99379.25
2019-05-03T16:39:27.598Z,99378.06
2019-05-03T16:41:56.641Z,99380.02
2019-05-03T16:44:25.753Z,99375.37
2019-05-03T16:46:55.415Z,99368.89
2019-05-03T16:49:24.687Z,99368.41
2019-05-03T16:51:54.913Z,99367.44
2019-05-03T16:54:25.457Z,99368.76
2019-05-03T16:56:54.992Z,99373.94
2019-05-03T16:59:24.721Z,99371.22
2019-05-03T17:01:55.177Z,99370.09
2019-05-03T17:04:29.036Z,99370.67
2019-05-03T17:07:17.032Z,99365.19
2019-05-03T17:09:54.414Z,99367.80
2019-05-03T17:12:28.097Z,99372.38
2019-05-03T17:14:57.271Z,99360.53
2019-05-03T17:17:26.386Z,99360.38
2019-05-03T17:19:55.445Z,99364.70
2019-05-03T17:22:25.189Z,99364.52
2019-05-03T17:24:54.616Z,99363.84
2019-05-03T17:27:24.981Z,99366.01
2019-05-03T17:29:55.257Z,99369.44
2019-05-03T17:32:24.780Z,99367.97
2019-05-03T17:34:54.899Z,99362.45
2019-05-03T17:37:25.716Z,99361.70
2019-05-03T17:40:14.733Z,99362.95
2019-05-03T17:43:00.472Z,99362.12
2019-05-03T17:45:35.107Z,99360.23
2019-05-03T17:48:04.611Z,99372.59
2019-05-03T17:50:34.780Z,99360.44
2019-05-03T17:53:23.041Z,99360.36
2019-05-03T17:55:57.892Z,99356.56
2019-05-03T17:58:32.303Z,99353.76
2019-05-03T18:01:32.446Z,99352.67
2019-05-03T18:04:09.468Z,99360.81
2019-05-03T18:06:45.249Z,99355.22
2019-05-03T18:09:23.334Z,99357.28
2019-05-03T18:11:58.606Z,99363.07
2019-05-03T18:14:27.683Z,99360.18
2019-05-03T18:16:56.766Z,99357.33
2019-05-03T18:19:25.905Z,99354.51
2019-05-03T18:21:55.463Z,99347.30
2019-05-03T18:24:24.790Z,99352.23
2019-05-03T18:26:54.010Z,99344.91
2019-05-03T18:29:25.129Z,99348.50
2019-05-03T18:31:55.068Z,99352.09
2019-05-03T18:34:24.950Z,99352.59
2019-05-03T18:36:54.274Z,99351.28
2019-05-03T18:39:25.111Z,99349.96
2019-05-03T18:41:54.432Z,99345.20
2019-05-03T18:44:34.694Z,99351.02
2019-05-03T18:47:07.626Z,99351.59
2019-05-03T18:49:36.713Z,99311.62
2019-05-03T18:52:05.810Z,99342.42
2019-05-03T18:54:35.181Z,99349.48
2019-05-03T18:57:05.087Z,99347.36
2019-05-03T18:59:34.345Z,99339.93
2019-05-03T19:02:05.386Z,99349.66
2019-05-03T19:04:41.327Z,99351.03
2019-05-03T19:07:21.515Z,99350.26
2019-05-03T19:10:15.650Z,99349.92
2019-05-03T19:12:55.237Z,99349.14
2019-05-03T19:15:25.098Z,99355.79
2019-05-03T19:18:01.113Z,99357.67
2019-05-03T19:20:30.269Z,99353.29
2019-05-03T19:22:59.482Z,99355.08
2019-05-03T19:25:28.631Z,99355.11
2019-05-03T19:27:57.689Z,99352.89
2019-05-03T19:30:26.758Z,99351.97
2019-05-03T19:32:55.822Z,99353.32
2019-05-03T19:35:27.625Z,99349.47
2019-05-03T19:37:57.573Z,99353.92
2019-05-03T19:40:26.956Z,99347.01
2019-05-03T19:42:56.204Z,99348.83
2019-05-03T19:45:25.535Z,99348.39
2019-05-03T19:47:55.208Z,99339.62
2019-05-03T19:50:27.119Z,99345.01
2019-05-03T19:53:14.512Z,99349.05
2019-05-03T19:55:44.861Z,99350.52
2019-05-03T19:58:14.791Z,99343.13
2019-05-03T20:01:03.024Z,99343.23
2019-05-03T20:03:38.799Z,99340.13
2019-05-03T20:06:25.202Z,99339.34
2019-05-03T20:08:59.279Z,99338.94
2019-05-03T20:11:28.352Z,99340.78
2019-05-03T20:13:57.520Z,99341.69
2019-05-03T20:16:26.598Z,99331.70
2019-05-03T20:18:55.690Z,99334.34
2019-05-03T20:21:25.294Z,99332.61
2019-05-03T20:23:55.565Z,99337.44
2019-05-03T20:26:25.300Z,99336.53
2019-05-03T20:28:55.297Z,99337.06
2019-05-03T20:31:25.254Z,99334.84
2019-05-03T20:33:54.875Z,99329.17
2019-05-03T20:36:24.141Z,99328.86
2019-05-03T20:38:54.903Z,99331.48
2019-05-03T20:41:25.538Z,99323.63
2019-05-03T20:44:07.564Z,99323.66
2019-05-03T20:46:45.726Z,99320.22
2019-05-03T20:49:15.278Z,99324.69
2019-05-03T20:51:45.042Z,99318.33
2019-05-03T20:54:15.374Z,99320.08
2019-05-03T20:56:45.567Z,99317.95
2019-05-03T20:59:17.167Z,99318.48
2019-05-03T21:01:46.290Z,99318.89
2019-05-03T21:04:15.550Z,99307.68
2019-05-03T21:06:45.506Z,99314.31
2019-05-03T21:09:14.988Z,99309.11
2019-05-03T21:11:44.804Z,99311.42
2019-05-03T21:14:15.520Z,99312.83
2019-05-03T21:17:07.051Z,99313.67
2019-05-03T21:19:50.589Z,99317.29
2019-05-03T21:22:26.049Z,99312.09
2019-05-03T21:25:06.312Z,99312.70
2019-05-03T21:27:35.222Z,99304.41
2019-05-03T21:30:05.071Z,99296.16
2019-05-03T21:32:35.167Z,99292.27
2019-05-03T21:35:05.436Z,99289.17
2019-05-03T21:37:34.892Z,99280.86
2019-05-03T21:40:05.141Z,99275.61
2019-05-03T21:42:35.056Z,99277.03
2019-05-03T21:45:04.854Z,99282.29
2019-05-03T21:47:48.621Z,99287.98
2019-05-03T21:50:19.161Z,99294.13
2019-05-03T21:52:48.236Z,99293.83
2019-05-03T21:55:17.361Z,99294.00
2019-05-03T21:57:46.694Z,99297.56
2019-05-03T22:00:16.667Z,99297.20
2019-05-03T22:02:45.754Z,99292.91
2019-05-03T22:05:16.488Z,99287.27
2019-05-03T22:07:45.762Z,99281.20
2019-05-03T22:10:15.097Z,99276.88
2019-05-03T22:12:44.319Z,99282.63
2019-05-03T22:15:21.191Z,99276.09
2019-05-03T22:18:15.282Z,99278.73
2019-05-03T22:20:54.925Z,99272.64
2019-05-03T22:23:42.288Z,99267.94
2019-05-03T22:26:11.357Z,99271.14
2019-05-03T22:28:40.472Z,99264.73
2019-05-03T22:31:09.500Z,99263.91
2019-05-03T22:33:38.548Z,99257.35
2019-05-03T22:36:09.056Z,99262.58
2019-05-03T22:38:38.523Z,99259.98
2019-05-03T22:41:07.733Z,99265.22
2019-05-03T22:43:36.745Z,99255.22
2019-05-03T22:46:05.759Z,99250.88
2019-05-03T22:48:34.829Z,99250.46
2019-05-03T22:51:04.839Z,99242.64
2019-05-03T22:53:34.363Z,99248.45
2019-05-03T22:56:04.876Z,99238.89
2019-05-03T22:58:35.464Z,99238.58
2019-05-03T23:01:04.596Z,99237.84
2019-05-03T23:03:44.619Z,99238.79
2019-05-03T23:06:20.345Z,99238.06
2019-05-03T23:08:44.016Z,99241.18
2019-05-03T23:11:13.044Z,99238.70
2019-05-03T23:13:42.075Z,99230.83
2019-05-03T23:16:11.066Z,99231.30
2019-05-03T23:18:41.036Z,99230.50
2019-05-03T23:21:15.793Z,99216.16
2019-05-03T23:23:54.972Z,99216.56
2019-05-03T23:26:25.405Z,99214.47
2019-05-03T23:28:55.101Z,99209.73
2019-05-03T23:31:25.167Z,99204.58
2019-05-03T23:33:54.707Z,99205.86
2019-05-03T23:36:33.100Z,99202.83
2019-05-03T23:38:54.752Z,99200.23
2019-05-03T23:41:24.530Z,99191.98
2019-05-03T23:43:53.750Z,99192.05
2019-05-03T23:46:28.787Z,99195.15
2019-05-03T23:48:57.896Z,99193.02
2019-05-03T23:51:44.793Z,99198.28
2019-05-03T23:54:14.967Z,99191.34
2019-05-03T23:56:45.817Z,99186.75
2019-05-03T23:59:15.136Z,99186.34
